Time;durP1;ratioP1;P1;durP2;ratioP2;P2;SDS_P1;SDS_P2;PMS_P1;PMS_P2;Temp;Humidity;BMP_temperature;BMP_pressure;BME280_temperature;BME280_humidity;BME280_pressure;Samples;Min_cycle;Max_cycle;Signal;HPM_P1;HPM_P2
2022/07/15 00:01:04;;;;;;;3.60;1.40;;;;;;;;;;5050977;28;20882;-70
2022/07/15 00:03:32;;;;;;;2.67;1.27;;;;;;;;;;5049198;28;20413;-73
2022/07/15 00:06:00;;;;;;;3.22;1.60;;;;;;;;;;5048803;28;20409;-73
2022/07/15 00:08:28;;;;;;;2.83;1.60;;;;;;;;;;5049110;28;20412;-71
2022/07/15 00:10:55;;;;;;;4.50;1.50;;;;;;;;;;5047653;28;20417;-73
2022/07/15 00:13:24;;;;;;;2.67;1.58;;;;;;;;;;5048537;28;20906;-71
2022/07/15 00:15:52;;;;;;;3.88;1.58;;;;;;;;;;5048070;28;20417;-71
2022/07/15 00:18:19;;;;;;;2.10;1.60;;;;;;;;;;5048235;28;20418;-71
2022/07/15 00:20:46;;;;;;;3.55;1.60;;;;;;;;;;5047458;28;20433;-71
2022/07/15 00:23:14;;;;;;;1.48;1.38;;;;;;;;;;5048433;28;20428;-71
2022/07/15 00:25:41;;;;;;;4.18;2.00;;;;;;;;;;5047385;28;20409;-71
2022/07/15 00:28:09;;;;;;;3.90;1.58;;;;;;;;;;5048383;28;20425;-73
2022/07/15 00:30:38;;;;;;;3.33;1.90;;;;;;;;;;5047207;28;20750;-73
2022/07/15 00:33:06;;;;;;;1.93;1.50;;;;;;;;;;5047883;28;20881;-73
2022/07/15 00:35:34;;;;;;;2.78;1.70;;;;;;;;;;5047610;28;20757;-73
2022/07/15 00:38:01;;;;;;;2.50;1.50;;;;;;;;;;5047710;28;20413;-72
2022/07/15 00:40:30;;;;;;;3.35;1.92;;;;;;;;;;5046823;28;20555;-72
2022/07/15 00:42:57;;;;;;;3.50;2.00;;;;;;;;;;5048056;28;20436;-70
2022/07/15 00:45:25;;;;;;;2.30;1.60;;;;;;;;;;5047477;28;20425;-71
2022/07/15 00:47:53;;;;;;;5.53;1.92;;;;;;;;;;5048313;28;20413;-71
2022/07/15 00:50:21;;;;;;;1.92;1.40;;;;;;;;;;5047389;28;20446;-71
2022/07/15 00:52:51;;;;;;;5.50;2.00;;;;;;;;;;5068232;22;20872;-75
2022/07/15 00:55:18;;;;;;;2.80;1.70;;;;;;;;;;5066643;28;20446;-75
2022/07/15 00:57:47;;;;;;;3.45;1.90;;;;;;;;;;5068563;28;20930;-73
2022/07/15 01:00:15;;;;;;;4.30;2.10;;;;;;;;;;5068381;28;20424;-74
2022/07/15 01:02:49;;;;;;;3.92;1.90;;;;;;;;;;5069348;28;20415;-75
2022/07/15 01:05:16;;;;;;;3.40;1.90;;;;;;;;;;5068639;28;20420;-74
2022/07/15 01:07:43;;;;;;;3.42;1.83;;;;;;;;;;5068771;28;20426;-74
2022/07/15 01:10:11;;;;;;;2.75;2.15;;;;;;;;;;5068564;28;20419;-74
2022/07/15 01:12:40;;;;;;;3.45;1.90;;;;;;;;;;5069417;28;20791;-73
2022/07/15 01:15:09;;;;;;;3.60;1.90;;;;;;;;;;5069293;28;20442;-73
2022/07/15 01:17:36;;;;;;;3.42;2.25;;;;;;;;;;5070290;28;20408;-75
2022/07/15 01:20:04;;;;;;;3.38;2.10;;;;;;;;;;5068264;28;20423;-73
2022/07/15 01:22:32;;;;;;;3.25;1.90;;;;;;;;;;5068857;28;20529;-74
2022/07/15 01:25:00;;;;;;;2.83;1.60;;;;;;;;;;5068707;28;20414;-74
2022/07/15 01:27:27;;;;;;;5.85;2.20;;;;;;;;;;5071395;28;20811;-74
2022/07/15 01:29:54;;;;;;;3.53;2.20;;;;;;;;;;5091967;28;20411;-74
2022/07/15 01:32:21;;;;;;;4.50;2.17;;;;;;;;;;5085617;28;20412;-74
2022/07/15 01:34:49;;;;;;;4.88;1.80;;;;;;;;;;5079107;28;20414;-74
2022/07/15 01:37:16;;;;;;;3.38;1.98;;;;;;;;;;5086464;28;20416;-74
2022/07/15 01:39:44;;;;;;;4.43;2.17;;;;;;;;;;5075254;28;20764;-73
2022/07/15 01:42:12;;;;;;;3.95;2.00;;;;;;;;;;5068283;28;20416;-74
2022/07/15 01:44:39;;;;;;;3.20;2.10;;;;;;;;;;5068387;28;20472;-74
2022/07/15 01:47:06;;;;;;;4.72;2.10;;;;;;;;;;5068862;28;20437;-74
2022/07/15 01:49:32;;;;;;;4.00;2.30;;;;;;;;;;5069668;28;20419;-74
2022/07/15 01:52:00;;;;;;;3.28;1.88;;;;;;;;;;5070188;28;20403;-74
2022/07/15 01:54:29;;;;;;;3.08;2.10;;;;;;;;;;5069451;28;20416;-72
2022/07/15 01:56:57;;;;;;;5.97;2.10;;;;;;;;;;5068240;28;20423;-73
2022/07/15 01:59:26;;;;;;;3.00;1.90;;;;;;;;;;5068499;28;20906;-73
2022/07/15 02:01:53;;;;;;;3.90;2.22;;;;;;;;;;5068359;28;20430;-74
2022/07/15 02:04:21;;;;;;;3.03;2.00;;;;;;;;;;5067953;28;20780;-73
2022/07/15 02:06:48;;;;;;;2.67;1.80;;;;;;;;;;5068053;28;20422;-73
2022/07/15 02:09:15;;;;;;;4.70;2.20;;;;;;;;;;5067629;28;20419;-73
2022/07/15 02:11:42;;;;;;;3.45;1.98;;;;;;;;;;5067422;28;20431;-74
2022/07/15 02:14:11;;;;;;;3.65;2.00;;;;;;;;;;5067871;28;20424;-74
2022/07/15 02:16:38;;;;;;;4.60;2.13;;;;;;;;;;5068193;28;20522;-72
2022/07/15 02:19:06;;;;;;;4.00;1.90;;;;;;;;;;5068004;28;20466;-73
2022/07/15 02:21:33;;;;;;;3.87;1.80;;;;;;;;;;5067860;28;20790;-74
2022/07/15 02:24:00;;;;;;;3.97;1.90;;;;;;;;;;5067624;28;20418;-73
2022/07/15 02:26:27;;;;;;;2.72;1.70;;;;;;;;;;5068318;28;20498;-73
2022/07/15 02:28:55;;;;;;;5.90;2.00;;;;;;;;;;5068064;28;20420;-73
2022/07/15 02:31:23;;;;;;;4.97;2.20;;;;;;;;;;5067786;28;20786;-73
2022/07/15 02:33:50;;;;;;;3.45;2.00;;;;;;;;;;5068148;28;20415;-73
2022/07/15 02:36:17;;;;;;;3.92;1.95;;;;;;;;;;5068006;28;20415;-73
2022/07/15 02:38:44;;;;;;;3.83;2.28;;;;;;;;;;5068120;28;20469;-72
2022/07/15 02:41:12;;;;;;;4.75;2.10;;;;;;;;;;5067787;28;20435;-73
2022/07/15 02:43:41;;;;;;;4.28;2.03;;;;;;;;;;5067818;28;20442;-74
2022/07/15 02:46:09;;;;;;;2.90;1.80;;;;;;;;;;5067551;28;20479;-74
2022/07/15 02:48:37;;;;;;;3.35;1.70;;;;;;;;;;5067980;28;20443;-75
2022/07/15 02:51:04;;;;;;;3.45;1.70;;;;;;;;;;5067359;28;20438;-74
2022/07/15 02:53:32;;;;;;;3.03;1.50;;;;;;;;;;5067581;28;20593;-75
2022/07/15 02:55:59;;;;;;;5.30;1.80;;;;;;;;;;5068939;28;20411;-75
2022/07/15 02:58:26;;;;;;;4.40;2.20;;;;;;;;;;5076590;28;20462;-75
2022/07/15 03:00:53;;;;;;;2.95;2.08;;;;;;;;;;5086818;28;20417;-74
2022/07/15 03:03:21;;;;;;;3.70;1.67;;;;;;;;;;5090213;28;20422;-74
2022/07/15 03:05:49;;;;;;;3.22;1.80;;;;;;;;;;5087135;28;20519;-73
2022/07/15 03:08:16;;;;;;;2.10;1.50;;;;;;;;;;5085221;28;20403;-74
2022/07/15 03:10:43;;;;;;;3.77;1.93;;;;;;;;;;5068085;28;20423;-74
2022/07/15 03:13:11;;;;;;;3.17;2.00;;;;;;;;;;5068054;28;20415;-73
2022/07/15 03:15:38;;;;;;;4.90;1.70;;;;;;;;;;5067335;28;20779;-73
2022/07/15 03:18:05;;;;;;;4.30;2.00;;;;;;;;;;5067363;28;20412;-74
2022/07/15 03:20:32;;;;;;;3.90;1.63;;;;;;;;;;5067203;28;20415;-74
2022/07/15 03:23:00;;;;;;;4.45;2.63;;;;;;;;;;5070740;28;20443;-74
2022/07/15 03:25:27;;;;;;;6.63;3.00;;;;;;;;;;5070840;28;20418;-73
2022/07/15 03:27:54;;;;;;;3.72;2.20;;;;;;;;;;5071256;28;20430;-73
2022/07/15 03:30:22;;;;;;;3.65;1.90;;;;;;;;;;5070335;28;20431;-73
2022/07/15 03:32:49;;;;;;;3.97;1.80;;;;;;;;;;5070423;28;20420;-74
2022/07/15 03:35:16;;;;;;;4.80;2.10;;;;;;;;;;5070695;28;20864;-74
2022/07/15 03:37:43;;;;;;;4.28;2.08;;;;;;;;;;5070504;28;20872;-74
2022/07/15 03:40:12;;;;;;;5.18;1.90;;;;;;;;;;5070090;28;20899;-74
2022/07/15 03:42:39;;;;;;;4.10;2.10;;;;;;;;;;5070756;28;20435;-74
2022/07/15 03:45:07;;;;;;;3.47;1.80;;;;;;;;;;5070415;28;20510;-73
2022/07/15 03:47:34;;;;;;;4.50;1.80;;;;;;;;;;5070824;28;20755;-74
2022/07/15 03:50:01;;;;;;;4.25;1.90;;;;;;;;;;5070095;28;20415;-74
2022/07/15 03:52:28;;;;;;;3.45;1.73;;;;;;;;;;5070009;28;20414;-73
2022/07/15 03:54:55;;;;;;;4.97;1.80;;;;;;;;;;5069958;28;20850;-74
2022/07/15 03:57:24;;;;;;;4.07;1.70;;;;;;;;;;5070442;28;20418;-74
2022/07/15 03:59:52;;;;;;;3.85;1.75;;;;;;;;;;5070374;28;20411;-73
2022/07/15 04:02:19;;;;;;;4.13;1.80;;;;;;;;;;5070280;28;20423;-73
2022/07/15 04:04:47;;;;;;;4.07;1.77;;;;;;;;;;5070487;28;20848;-73
2022/07/15 04:07:14;;;;;;;5.65;2.30;;;;;;;;;;5070932;28;20411;-73
2022/07/15 04:09:41;;;;;;;3.88;2.08;;;;;;;;;;5070183;28;20891;-73
2022/07/15 04:12:08;;;;;;;4.90;2.30;;;;;;;;;;5070115;28;20414;-73
2022/07/15 04:14:36;;;;;;;4.40;2.10;;;;;;;;;;5070411;28;20420;-73
2022/07/15 04:17:04;;;;;;;5.47;2.38;;;;;;;;;;5070366;28;20910;-73
2022/07/15 04:19:31;;;;;;;3.92;2.30;;;;;;;;;;5070362;28;20802;-75
2022/07/15 04:21:58;;;;;;;3.07;2.10;;;;;;;;;;5069659;28;20459;-73
2022/07/15 04:24:26;;;;;;;3.60;2.40;;;;;;;;;;5070064;28;20416;-73
2022/07/15 04:26:53;;;;;;;5.20;2.40;;;;;;;;;;5070491;28;20500;-74
2022/07/15 04:29:20;;;;;;;5.72;2.70;;;;;;;;;;5070032;28;20426;-74
2022/07/15 04:31:48;;;;;;;6.07;2.83;;;;;;;;;;5069678;28;20902;-74
2022/07/15 04:34:15;;;;;;;4.97;2.70;;;;;;;;;;5068788;28;20426;-73
2022/07/15 04:36:43;;;;;;;7.13;2.78;;;;;;;;;;5069807;28;20729;-74
2022/07/15 04:39:10;;;;;;;5.82;3.25;;;;;;;;;;5069442;28;20435;-74
2022/07/15 04:41:37;;;;;;;6.90;3.20;;;;;;;;;;5069100;28;20784;-74
2022/07/15 04:44:04;;;;;;;4.18;2.70;;;;;;;;;;5069305;28;20434;-74
2022/07/15 04:46:31;;;;;;;4.25;2.70;;;;;;;;;;5070600;28;20455;-74
2022/07/15 04:51:44;;;;;;;4.30;3.38;;;;;;;;;;5069332;28;20501;-73
2022/07/15 04:54:12;;;;;;;4.80;3.80;;;;;;;;;;5069406;28;20485;-73
2022/07/15 04:56:39;;;;;;;6.17;3.57;;;;;;;;;;5070071;28;20745;-73
2022/07/15 04:59:06;;;;;;;6.13;3.25;;;;;;;;;;5070187;28;20411;-72
2022/07/15 05:01:33;;;;;;;4.82;3.60;;;;;;;;;;5069010;28;20416;-74
2022/07/15 05:04:02;;;;;;;7.53;3.40;;;;;;;;;;5069065;28;20530;-75
2022/07/15 05:06:29;;;;;;;5.25;2.90;;;;;;;;;;5070263;28;20418;-73
2022/07/15 05:08:56;;;;;;;6.53;3.08;;;;;;;;;;5069225;28;20465;-73
2022/07/15 05:11:23;;;;;;;7.43;3.40;;;;;;;;;;5069032;28;20426;-74
2022/07/15 05:13:50;;;;;;;5.10;3.13;;;;;;;;;;5068708;28;20414;-74
2022/07/15 05:16:18;;;;;;;6.07;3.40;;;;;;;;;;5068866;28;20791;-73
2022/07/15 05:18:45;;;;;;;6.45;3.55;;;;;;;;;;5068784;28;20888;-73
2022/07/15 05:21:14;;;;;;;6.90;3.40;;;;;;;;;;5068924;28;20412;-72
2022/07/15 05:23:41;;;;;;;5.68;3.00;;;;;;;;;;5068436;28;20423;-73
2022/07/15 05:26:08;;;;;;;5.33;3.20;;;;;;;;;;5068932;28;20912;-73
2022/07/15 05:28:35;;;;;;;5.85;2.90;;;;;;;;;;5069123;28;20411;-74
2022/07/15 05:31:02;;;;;;;5.50;3.30;;;;;;;;;;5068338;28;20416;-73
2022/07/15 05:33:29;;;;;;;5.20;3.70;;;;;;;;;;5068671;28;20427;-73
2022/07/15 05:35:56;;;;;;;6.28;4.03;;;;;;;;;;5068334;28;20851;-73
2022/07/15 05:38:25;;;;;;;7.03;3.50;;;;;;;;;;5068811;28;20418;-73
2022/07/15 05:40:53;;;;;;;4.28;3.08;;;;;;;;;;5087226;28;20417;-72
2022/07/15 05:43:20;;;;;;;6.80;3.80;;;;;;;;;;5080953;28;20431;-75
2022/07/15 05:45:47;;;;;;;6.72;3.30;;;;;;;;;;5084104;28;20416;-74
2022/07/15 05:48:14;;;;;;;6.88;3.70;;;;;;;;;;5071817;28;20419;-74
2022/07/15 05:50:42;;;;;;;3.78;3.20;;;;;;;;;;5068711;28;20411;-74
2022/07/15 05:53:09;;;;;;;5.22;3.55;;;;;;;;;;5068681;28;20914;-73
2022/07/15 05:55:37;;;;;;;6.45;4.05;;;;;;;;;;5068518;28;20442;-72
2022/07/15 05:58:06;;;;;;;6.47;3.65;;;;;;;;;;5068411;28;20422;-73
2022/07/15 06:00:34;;;;;;;7.07;3.83;;;;;;;;;;5067759;28;20899;-73
2022/07/15 06:03:01;;;;;;;5.40;3.50;;;;;;;;;;5069129;28;20771;-73
2022/07/15 06:05:29;;;;;;;4.60;3.30;;;;;;;;;;5069406;28;20472;-73
2022/07/15 06:07:56;;;;;;;6.72;4.25;;;;;;;;;;5069602;28;20415;-72
2022/07/15 06:10:23;;;;;;;6.78;3.88;;;;;;;;;;5068719;28;20430;-73
2022/07/15 06:12:52;;;;;;;5.63;3.45;;;;;;;;;;5069592;28;20740;-72
2022/07/15 06:15:20;;;;;;;6.18;3.63;;;;;;;;;;5068839;28;20778;-74
2022/07/15 06:17:47;;;;;;;5.57;3.50;;;;;;;;;;5069016;28;20423;-73
2022/07/15 06:20:14;;;;;;;7.70;3.35;;;;;;;;;;5068666;28;20411;-73
2022/07/15 06:22:41;;;;;;;5.22;3.22;;;;;;;;;;5069030;28;20423;-74
2022/07/15 06:25:09;;;;;;;4.70;3.35;;;;;;;;;;5068782;28;20778;-73
2022/07/15 06:27:36;;;;;;;7.85;3.40;;;;;;;;;;5069228;28;20415;-74
2022/07/15 06:30:05;;;;;;;6.57;3.10;;;;;;;;;;5084057;28;20414;-74
2022/07/15 06:32:32;;;;;;;4.72;3.22;;;;;;;;;;5086007;28;20410;-73
2022/07/15 06:34:59;;;;;;;4.88;2.90;;;;;;;;;;5086292;28;20491;-74
2022/07/15 06:37:27;;;;;;;5.90;2.90;;;;;;;;;;5089628;28;20488;-74
2022/07/15 06:39:54;;;;;;;6.07;3.03;;;;;;;;;;5092534;28;20583;-75
2022/07/15 06:42:22;;;;;;;7.00;3.00;;;;;;;;;;5086561;28;20414;-75
2022/07/15 06:44:49;;;;;;;5.10;2.88;;;;;;;;;;5080755;28;20412;-74
2022/07/15 06:47:17;;;;;;;4.63;3.20;;;;;;;;;;5071852;28;20412;-74
2022/07/15 06:49:44;;;;;;;4.90;3.10;;;;;;;;;;5070007;28;20417;-74
2022/07/15 06:52:11;;;;;;;4.93;3.20;;;;;;;;;;5069513;28;20772;-73
2022/07/15 06:54:39;;;;;;;5.28;3.88;;;;;;;;;;5078565;23;20551;-73
2022/07/15 06:57:06;;;;;;;7.60;3.80;;;;;;;;;;5056538;28;20459;-73
2022/07/15 06:59:33;;;;;;;6.00;3.58;;;;;;;;;;5049958;28;20416;-73
2022/07/15 07:02:00;;;;;;;7.55;3.20;;;;;;;;;;5049751;28;20471;-73
2022/07/15 07:04:29;;;;;;;6.75;3.88;;;;;;;;;;5049773;28;20505;-73
2022/07/15 07:06:56;;;;;;;6.63;3.90;;;;;;;;;;5050123;28;20780;-73
2022/07/15 07:09:23;;;;;;;8.25;3.60;;;;;;;;;;5049465;28;20446;-74
2022/07/15 07:11:50;;;;;;;7.50;4.00;;;;;;;;;;5049558;28;20440;-73
2022/07/15 07:14:17;;;;;;;6.67;4.23;;;;;;;;;;5049608;28;20409;-73
2022/07/15 07:16:45;;;;;;;5.15;4.22;;;;;;;;;;5049865;28;20432;-73
2022/07/15 07:19:12;;;;;;;5.10;3.78;;;;;;;;;;5049502;28;20516;-73
2022/07/15 07:21:41;;;;;;;5.57;3.42;;;;;;;;;;5049462;28;20478;-74
2022/07/15 07:24:08;;;;;;;5.20;3.47;;;;;;;;;;5048706;28;20921;-71
2022/07/15 07:26:37;;;;;;;4.77;3.17;;;;;;;;;;5049973;28;20421;-74
2022/07/15 07:29:04;;;;;;;5.10;2.93;;;;;;;;;;5049998;28;20520;-74
2022/07/15 07:31:32;;;;;;;5.55;2.83;;;;;;;;;;5049545;28;20520;-73
2022/07/15 07:33:59;;;;;;;3.45;2.50;;;;;;;;;;5049511;28;20420;-72
2022/07/15 07:36:26;;;;;;;4.82;2.90;;;;;;;;;;5049733;28;20432;-72
2022/07/15 07:38:55;;;;;;;5.25;2.80;;;;;;;;;;5049545;28;20840;-72
2022/07/15 07:41:22;;;;;;;4.70;2.30;;;;;;;;;;5049213;28;20517;-72
2022/07/15 07:43:49;;;;;;;4.78;2.08;;;;;;;;;;5049442;28;20439;-72
2022/07/15 07:46:17;;;;;;;5.47;2.50;;;;;;;;;;5049471;28;20453;-72
2022/07/15 07:48:44;;;;;;;3.63;2.10;;;;;;;;;;5049343;28;20838;-72
2022/07/15 07:51:11;;;;;;;5.32;2.10;;;;;;;;;;5048992;28;20421;-72
2022/07/15 07:53:39;;;;;;;4.10;2.20;;;;;;;;;;5050924;28;20402;-72
2022/07/15 07:56:07;;;;;;;2.55;1.60;;;;;;;;;;5068557;28;20423;-72
2022/07/15 07:58:35;;;;;;;3.83;2.30;;;;;;;;;;5069477;28;20415;-71
2022/07/15 08:01:02;;;;;;;3.38;2.10;;;;;;;;;;5068509;28;20419;-72
2022/07/15 08:03:29;;;;;;;3.90;2.10;;;;;;;;;;5069287;28;20492;-72
2022/07/15 08:05:57;;;;;;;3.42;2.00;;;;;;;;;;5068668;28;20737;-73
2022/07/15 08:08:24;;;;;;;3.00;1.50;;;;;;;;;;5067496;28;20426;-73
2022/07/15 08:10:52;;;;;;;3.45;1.60;;;;;;;;;;5068015;28;20751;-72
2022/07/15 08:13:22;;;;;;;2.20;1.30;;;;;;;;;;5068922;28;20411;-73
2022/07/15 08:15:49;;;;;;;2.95;1.30;;;;;;;;;;5068541;28;20418;-74
2022/07/15 08:18:16;;;;;;;3.10;1.60;;;;;;;;;;5069264;28;20422;-72
2022/07/15 08:20:43;;;;;;;2.95;1.30;;;;;;;;;;5068168;28;20416;-74
2022/07/15 08:23:10;;;;;;;2.85;1.30;;;;;;;;;;5068634;28;20443;-73
2022/07/15 08:25:38;;;;;;;2.30;1.20;;;;;;;;;;5068365;28;20724;-72
2022/07/15 08:28:06;;;;;;;2.47;1.00;;;;;;;;;;5068770;28;20415;-74
2022/07/15 08:30:35;;;;;;;2.40;0.80;;;;;;;;;;5068577;28;20423;-74
2022/07/15 08:33:03;;;;;;;1.30;0.63;;;;;;;;;;5068930;28;20915;-74
2022/07/15 08:35:30;;;;;;;2.10;0.70;;;;;;;;;;5068217;28;20411;-74
2022/07/15 08:37:57;;;;;;;2.20;0.90;;;;;;;;;;5070450;28;20771;-75
2022/07/15 08:40:25;;;;;;;2.00;0.90;;;;;;;;;;5068117;28;20411;-74
2022/07/15 08:42:52;;;;;;;2.10;1.10;;;;;;;;;;5068623;28;20793;-73
2022/07/15 08:45:19;;;;;;;2.28;1.00;;;;;;;;;;5068083;28;20434;-75
2022/07/15 08:47:48;;;;;;;1.85;1.10;;;;;;;;;;5068381;28;20497;-75
2022/07/15 08:50:17;;;;;;;2.53;0.90;;;;;;;;;;5068380;28;20412;-74
2022/07/15 08:52:44;;;;;;;2.33;1.10;;;;;;;;;;5068078;28;20878;-75
2022/07/15 08:55:12;;;;;;;2.30;0.93;;;;;;;;;;5067463;28;20416;-75
2022/07/15 08:57:39;;;;;;;5.50;5.00;;;;;;;;;;5067991;28;20894;-75
2022/07/15 09:00:10;;;;;;;2.08;1.20;;;;;;;;;;5067135;28;20888;-75
2022/07/15 09:02:37;;;;;;;2.33;0.80;;;;;;;;;;5068439;28;20466;-75
2022/07/15 09:05:23;;;;;;;4.10;0.90;;;;;;;;;;5067401;28;20513;-75
2022/07/15 09:07:55;;;;;;;1.60;0.80;;;;;;;;;;5068167;28;20785;-74
2022/07/15 09:10:22;;;;;;;1.63;0.90;;;;;;;;;;5066735;28;20416;-74
2022/07/15 09:12:50;;;;;;;1.73;1.10;;;;;;;;;;5068075;28;20427;-74
2022/07/15 09:15:31;;;;;;;2.20;1.02;;;;;;;;;;5067272;28;20454;-74
2022/07/15 09:18:06;;;;;;;2.87;1.50;;;;;;;;;;5067252;28;20915;-74
2022/07/15 09:20:35;;;;;;;2.47;1.40;;;;;;;;;;5066781;28;20917;-74
2022/07/15 09:23:03;;;;;;;4.20;1.80;;;;;;;;;;5067026;28;20420;-74
2022/07/15 09:25:33;;;;;;;2.95;1.20;;;;;;;;;;5067011;28;20416;-74
2022/07/15 09:28:01;;;;;;;3.13;1.50;;;;;;;;;;5067587;28;20459;-74
2022/07/15 09:33:36;;;;;;;3.05;1.08;;;;;;;;;;5010042;28;20433;-74
2022/07/15 09:36:08;;;;;;;2.60;1.10;;;;;;;;;;5066669;28;20419;-74
2022/07/15 09:38:40;;;;;;;3.42;1.00;;;;;;;;;;5067212;28;20423;-74
2022/07/15 09:41:08;;;;;;;1.85;1.00;;;;;;;;;;5066394;28;20426;-74
2022/07/15 09:43:43;;;;;;;2.50;1.50;;;;;;;;;;5066699;28;20423;-74
2022/07/15 09:46:10;;;;;;;3.90;1.40;;;;;;;;;;5067164;28;20416;-74
2022/07/15 09:48:40;;;;;;;2.25;1.50;;;;;;;;;;5067358;28;20491;-74
2022/07/15 09:51:09;;;;;;;3.58;1.80;;;;;;;;;;5066785;28;20439;-74
2022/07/15 09:53:37;;;;;;;3.55;1.73;;;;;;;;;;5066863;28;20415;-74
2022/07/15 09:56:05;;;;;;;4.00;1.90;;;;;;;;;;5066229;28;20407;-74
2022/07/15 09:58:32;;;;;;;4.03;1.60;;;;;;;;;;5067092;28;20455;-74
2022/07/15 10:01:00;;;;;;;3.72;2.05;;;;;;;;;;5066896;28;20989;-73
2022/07/15 10:03:27;;;;;;;3.20;1.73;;;;;;;;;;5067116;28;20518;-73
2022/07/15 10:05:55;;;;;;;2.70;1.70;;;;;;;;;;5066742;28;20415;-73
2022/07/15 10:08:25;;;;;;;2.50;1.60;;;;;;;;;;5067111;28;20416;-73
2022/07/15 10:10:52;;;;;;;2.70;1.98;;;;;;;;;;5066178;28;20415;-74
2022/07/15 10:13:35;;;;;;;3.10;2.00;;;;;;;;;;5067168;28;20502;-74
2022/07/15 10:16:08;;;;;;;3.20;2.20;;;;;;;;;;5067049;28;20473;-73
2022/07/15 10:18:44;;;;;;;4.50;2.00;;;;;;;;;;5067364;28;20415;-74
2022/07/15 10:21:19;;;;;;;3.30;1.90;;;;;;;;;;5066665;28;20430;-74
2022/07/15 10:24:07;;;;;;;3.05;2.20;;;;;;;;;;5066340;28;20427;-74
2022/07/15 10:26:49;;;;;;;3.37;2.17;;;;;;;;;;5060792;28;20449;-74
2022/07/15 10:29:16;;;;;;;2.60;1.90;;;;;;;;;;5066511;28;20887;-74
2022/07/15 10:31:45;;;;;;;2.90;2.20;;;;;;;;;;5066002;28;20407;-74
2022/07/15 10:34:20;;;;;;;2.10;1.90;;;;;;;;;;5066776;28;20464;-75
2022/07/15 10:37:00;;;;;;;2.85;1.70;;;;;;;;;;5066632;28;20488;-75
2022/07/15 10:39:29;;;;;;;3.20;2.00;;;;;;;;;;5066171;28;20510;-75
2022/07/15 10:41:59;;;;;;;3.10;2.00;;;;;;;;;;5066181;28;20415;-74
2022/07/15 10:44:26;;;;;;;4.03;1.67;;;;;;;;;;5066306;28;20423;-74
2022/07/15 10:47:12;;;;;;;3.10;1.90;;;;;;;;;;5066915;28;20517;-75
2022/07/15 10:49:39;;;;;;;4.53;1.80;;;;;;;;;;5066221;28;20411;-74
2022/07/15 10:52:14;;;;;;;3.33;2.03;;;;;;;;;;5066312;28;20419;-73
2022/07/15 10:54:51;;;;;;;2.92;1.90;;;;;;;;;;5065880;28;20502;-73
2022/07/15 10:57:20;;;;;;;2.58;1.90;;;;;;;;;;5066338;28;20753;-73
2022/07/15 10:59:52;;;;;;;1.80;1.40;;;;;;;;;;5066151;28;20411;-76
2022/07/15 11:02:20;;;;;;;3.05;1.70;;;;;;;;;;5065950;28;20426;-74
2022/07/15 11:04:48;;;;;;;3.92;1.50;;;;;;;;;;5065625;28;20430;-73
2022/07/15 11:07:22;;;;;;;2.97;1.00;;;;;;;;;;5066267;28;20426;-74
2022/07/15 11:09:50;;;;;;;2.28;1.10;;;;;;;;;;5065087;28;20859;-73
2022/07/15 11:12:18;;;;;;;3.45;1.30;;;;;;;;;;5065530;28;20415;-73
2022/07/15 11:14:48;;;;;;;2.58;0.90;;;;;;;;;;5065773;28;20511;-74
2022/07/15 11:17:17;;;;;;;1.50;1.00;;;;;;;;;;5065800;28;20492;-73
2022/07/15 11:19:48;;;;;;;1.80;1.10;;;;;;;;;;5065585;28;20419;-73
2022/07/15 11:22:17;;;;;;;3.10;1.70;;;;;;;;;;5065860;28;20427;-75
2022/07/15 11:24:44;;;;;;;2.90;1.20;;;;;;;;;;5064851;28;20518;-76
2022/07/15 11:27:11;;;;;;;2.72;1.00;;;;;;;;;;5065696;28;20412;-74
2022/07/15 11:29:41;;;;;;;2.28;1.08;;;;;;;;;;5065893;28;20427;-74
2022/07/15 11:32:10;;;;;;;2.60;1.13;;;;;;;;;;5065875;28;20423;-75
2022/07/15 11:34:38;;;;;;;1.80;1.05;;;;;;;;;;5065467;28;20514;-75
2022/07/15 11:37:05;;;;;;;2.50;1.00;;;;;;;;;;5066071;28;20502;-75
2022/07/15 11:39:33;;;;;;;2.90;1.30;;;;;;;;;;5065313;28;20423;-75
2022/07/15 11:44:46;;;;;;;3.30;0.90;;;;;;;;;;5069377;28;20426;-75
2022/07/15 11:47:15;;;;;;;4.47;2.08;;;;;;;;;;5069356;28;20906;-75
2022/07/15 11:49:43;;;;;;;2.07;1.10;;;;;;;;;;5068996;28;20446;-75
2022/07/15 11:52:11;;;;;;;1.70;0.80;;;;;;;;;;5068972;28;20515;-75
2022/07/15 11:54:38;;;;;;;2.08;0.90;;;;;;;;;;5068309;28;20504;-75
2022/07/15 11:57:06;;;;;;;1.50;0.90;;;;;;;;;;5069003;28;20446;-75
2022/07/15 11:59:34;;;;;;;2.35;0.93;;;;;;;;;;5068869;28;20407;-76
2022/07/15 12:02:02;;;;;;;2.28;1.10;;;;;;;;;;5069021;28;20415;-76
2022/07/15 12:04:30;;;;;;;1.58;0.80;;;;;;;;;;5068794;28;20420;-74
2022/07/15 12:06:58;;;;;;;1.50;0.90;;;;;;;;;;5069556;28;20434;-74
2022/07/15 12:09:25;;;;;;;2.00;0.90;;;;;;;;;;5068523;28;20778;-74
2022/07/15 12:11:52;;;;;;;2.60;0.82;;;;;;;;;;5068860;28;20415;-75
2022/07/15 12:14:20;;;;;;;1.38;0.70;;;;;;;;;;5069185;28;20416;-74
2022/07/15 12:16:49;;;;;;;1.40;0.80;;;;;;;;;;5068960;28;20497;-75
2022/07/15 12:19:17;;;;;;;2.73;1.00;;;;;;;;;;5068679;28;20582;-74
2022/07/15 12:21:47;;;;;;;2.17;1.00;;;;;;;;;;5068654;28;20500;-74
2022/07/15 12:24:16;;;;;;;1.83;1.00;;;;;;;;;;5068025;28;20480;-75
2022/07/15 12:26:44;;;;;;;3.17;0.93;;;;;;;;;;5068793;28;20407;-75
2022/07/15 12:29:12;;;;;;;2.08;0.80;;;;;;;;;;5068275;28;20437;-75
2022/07/15 12:31:40;;;;;;;1.42;0.82;;;;;;;;;;5068521;28;20426;-75
2022/07/15 12:34:08;;;;;;;2.13;1.35;;;;;;;;;;5068057;28;20426;-76
2022/07/15 12:36:37;;;;;;;1.75;0.80;;;;;;;;;;5068654;28;20943;-75
2022/07/15 12:39:07;;;;;;;1.33;0.70;;;;;;;;;;5068182;28;20416;-75
2022/07/15 12:41:35;;;;;;;1.73;0.90;;;;;;;;;;5068299;28;20763;-75
2022/07/15 12:44:03;;;;;;;1.88;1.00;;;;;;;;;;5068139;28;20422;-74
2022/07/15 12:46:49;;;;;;;1.90;1.00;;;;;;;;;;5068420;28;20442;-75
2022/07/15 12:49:31;;;;;;;2.53;1.17;;;;;;;;;;5067793;28;20903;-75
2022/07/15 12:51:58;;;;;;;2.22;0.95;;;;;;;;;;5067224;28;20407;-75
2022/07/15 12:56:54;;;;;;;3.05;1.30;;;;;;;;;;5064603;22;21009;-75
2022/07/15 12:59:21;;;;;;;4.10;1.00;;;;;;;;;;5050065;28;20409;-75
2022/07/15 13:02:02;;;;;;;1.30;0.90;;;;;;;;;;5050682;28;20431;-74
2022/07/15 13:04:29;;;;;;;2.20;0.80;;;;;;;;;;5049600;28;20960;-74
2022/07/15 13:06:57;;;;;;;2.35;0.90;;;;;;;;;;5049902;28;20414;-74
2022/07/15 13:09:24;;;;;;;1.77;1.00;;;;;;;;;;5049227;28;20429;-74
2022/07/15 13:12:00;;;;;;;2.08;0.90;;;;;;;;;;5049894;28;20406;-75
2022/07/15 13:14:27;;;;;;;3.00;1.10;;;;;;;;;;5050394;28;20436;-75
2022/07/15 13:16:54;;;;;;;2.20;0.70;;;;;;;;;;5049942;28;20417;-73
2022/07/15 13:19:21;;;;;;;2.50;0.80;;;;;;;;;;5049789;28;20423;-75
2022/07/15 13:21:49;;;;;;;2.40;0.90;;;;;;;;;;5049664;28;20421;-74
2022/07/15 13:24:16;;;;;;;2.00;0.73;;;;;;;;;;5050305;28;20409;-74
2022/07/15 13:26:43;;;;;;;1.73;0.80;;;;;;;;;;5051413;28;20413;-75
2022/07/15 13:29:12;;;;;;;1.85;0.90;;;;;;;;;;5049667;28;20534;-75
2022/07/15 13:31:39;;;;;;;1.67;0.70;;;;;;;;;;5050173;28;20509;-75
2022/07/15 13:34:06;;;;;;;1.90;0.80;;;;;;;;;;5049917;28;20476;-75
2022/07/15 13:36:34;;;;;;;1.27;0.50;;;;;;;;;;5069655;28;20481;-74
2022/07/15 13:39:01;;;;;;;1.80;0.70;;;;;;;;;;5069658;28;20413;-74
2022/07/15 13:41:28;;;;;;;2.00;0.80;;;;;;;;;;5061474;28;20445;-75
2022/07/15 13:43:55;;;;;;;2.05;0.85;;;;;;;;;;5049539;28;20421;-75
2022/07/15 13:46:24;;;;;;;2.17;0.90;;;;;;;;;;5054082;28;20421;-74
2022/07/15 13:48:51;;;;;;;1.90;1.20;;;;;;;;;;5063615;28;20405;-75
2022/07/15 13:51:23;;;;;;;2.40;1.33;;;;;;;;;;5057009;28;20417;-73
2022/07/15 13:53:50;;;;;;;2.33;1.00;;;;;;;;;;5050391;28;20440;-76
2022/07/15 13:56:17;;;;;;;3.05;1.10;;;;;;;;;;5048914;28;20505;-74
2022/07/15 13:58:44;;;;;;;1.40;0.70;;;;;;;;;;5049292;28;20421;-72
2022/07/15 14:01:12;;;;;;;1.67;0.70;;;;;;;;;;5050163;28;20413;-74
2022/07/15 14:03:40;;;;;;;2.38;0.90;;;;;;;;;;5051809;28;20417;-74
2022/07/15 14:06:09;;;;;;;2.10;1.25;;;;;;;;;;5050003;28;20491;-74
2022/07/15 14:08:37;;;;;;;3.65;0.90;;;;;;;;;;5051151;28;20420;-74
2022/07/15 14:11:04;;;;;;;2.85;1.00;;;;;;;;;;5050553;28;20408;-74
2022/07/15 14:13:31;;;;;;;2.65;0.98;;;;;;;;;;5051710;28;20409;-74
2022/07/15 14:15:58;;;;;;;1.70;0.77;;;;;;;;;;5052568;28;20781;-73
2022/07/15 14:21:07;;;;;;;2.85;1.52;;;;;;;;;;5048414;28;20765;-73
2022/07/15 14:23:34;;;;;;;1.50;0.70;;;;;;;;;;5049122;28;20814;-76
2022/07/15 14:26:02;;;;;;;1.73;0.85;;;;;;;;;;5048505;28;20440;-75
2022/07/15 14:28:30;;;;;;;1.77;0.60;;;;;;;;;;5049423;28;20495;-74
2022/07/15 14:30:57;;;;;;;2.92;1.40;;;;;;;;;;5049402;28;20417;-74
2022/07/15 14:33:25;;;;;;;2.75;1.00;;;;;;;;;;5049329;28;20429;-75
2022/07/15 14:35:53;;;;;;;3.10;1.80;;;;;;;;;;5048806;28;20409;-74
2022/07/15 14:38:21;;;;;;;2.10;1.10;;;;;;;;;;5049718;28;20895;-74
2022/07/15 14:40:48;;;;;;;2.92;1.50;;;;;;;;;;5048834;28;20537;-75
2022/07/15 14:43:15;;;;;;;2.28;1.27;;;;;;;;;;5050456;28;20423;-75
2022/07/15 14:45:42;;;;;;;2.42;0.90;;;;;;;;;;5051168;28;20421;-75
2022/07/15 14:48:11;;;;;;;2.00;1.00;;;;;;;;;;5051207;28;20424;-74
2022/07/15 14:50:38;;;;;;;3.20;1.02;;;;;;;;;;5051238;28;20452;-75
2022/07/15 14:53:05;;;;;;;2.20;1.10;;;;;;;;;;5051534;28;20439;-75
2022/07/15 14:55:34;;;;;;;1.80;0.98;;;;;;;;;;5051613;28;20409;-75
2022/07/15 14:58:01;;;;;;;2.13;0.90;;;;;;;;;;5067046;28;20424;-75
2022/07/15 15:00:28;;;;;;;1.70;0.80;;;;;;;;;;5068621;28;20427;-74
2022/07/15 15:02:55;;;;;;;2.30;1.00;;;;;;;;;;5054902;28;20433;-76